Time;durP1;ratioP1;P1;durP2;ratioP2;P2;SDS_P1;SDS_P2;PMS_P1;PMS_P2;Temp;Humidity;BMP_temperature;BMP_pressure;BME280_temperature;BME280_humidity;BME280_pressure;Samples;Min_cycle;Max_cycle;Signal;HPM_P1;HPM_P2
2022/12/27 00:01:39;;;;;;;0.87;0.87;;;;;;;2.98;99.45;100742.72;5070692;28;20174;-77
2022/12/27 00:04:05;;;;;;;15.97;2.17;;;;;;;2.96;99.37;100731.38;5071465;28;20218;-82
2022/12/27 00:06:30;;;;;;;1.43;1.33;;;;;;;2.90;99.39;100735.91;5071975;28;20243;-76
2022/12/27 00:08:56;;;;;;;1.80;1.33;;;;;;;2.85;100.00;100729.63;5071857;28;20254;-76
2022/12/27 00:11:25;;;;;;;1.37;1.13;;;;;;;2.89;99.68;100728.88;5071765;28;20170;-77
2022/12/27 00:13:51;;;;;;;3.73;1.03;;;;;;;2.86;99.50;100726.66;5071522;28;20236;-76
2022/12/27 00:16:19;;;;;;;1.57;1.03;;;;;;;2.87;99.52;100732.88;5071619;28;20194;-75
2022/12/27 00:18:45;;;;;;;3.07;1.20;;;;;;;2.97;98.63;100741.91;5071575;28;20265;-75
2022/12/27 00:21:12;;;;;;;2.63;1.20;;;;;;;3.04;98.16;100739.00;5071861;28;20246;-75
2022/12/27 00:23:40;;;;;;;6.00;1.93;;;;;;;3.06;97.67;100738.75;5071267;28;20220;-75
2022/12/27 00:26:09;;;;;;;3.13;1.30;;;;;;;3.03;97.06;100752.75;5071487;28;20591;-75
2022/12/27 00:28:35;;;;;;;2.10;1.73;;;;;;;2.93;97.52;100759.69;5071766;28;20213;-75
2022/12/27 00:31:01;;;;;;;1.00;0.97;;;;;;;2.96;97.76;100748.38;5071294;28;20178;-76
2022/12/27 00:33:28;;;;;;;0.27;0.27;;;;;;;2.92;97.43;100766.13;5071357;28;20236;-75
2022/12/27 00:35:54;;;;;;;4.43;0.93;;;;;;;2.89;97.62;100769.34;5071165;28;20263;-75
2022/12/27 00:38:20;;;;;;;1.50;1.13;;;;;;;2.88;97.72;100765.00;5071217;28;20626;-75
2022/12/27 00:40:45;;;;;;;15.27;1.80;;;;;;;2.87;97.49;100768.75;5071604;28;20206;-75
2022/12/27 00:43:11;;;;;;;5.40;1.80;;;;;;;2.87;97.94;100765.25;5071209;28;20261;-75
2022/12/27 00:45:36;;;;;;;10.50;0.83;;;;;;;2.95;97.41;100762.13;5070301;28;20626;-76
2022/12/27 00:48:01;;;;;;;1.07;0.97;;;;;;;2.99;97.61;100766.75;5071388;28;20175;-75
2022/12/27 00:50:26;;;;;;;0.80;0.80;;;;;;;3.02;96.82;100778.91;5071126;28;20202;-75
2022/12/27 00:52:52;;;;;;;0.80;0.80;;;;;;;3.04;96.94;100773.25;5070905;28;20283;-76
2022/12/27 00:55:17;;;;;;;2.17;1.57;;;;;;;3.04;96.85;100773.25;5070943;28;20227;-76
2022/12/27 00:57:42;;;;;;;2.07;1.67;;;;;;;3.07;96.50;100767.38;5069646;28;20288;-76
2022/12/27 01:00:09;;;;;;;0.67;0.67;;;;;;;3.04;96.48;100782.19;5070685;28;20516;-75
2022/12/27 01:02:35;;;;;;;0.53;0.50;;;;;;;3.06;96.33;100787.34;5070695;28;20262;-75
2022/12/27 01:05:00;;;;;;;1.60;1.50;;;;;;;3.09;96.19;100776.84;5070862;28;20573;-75
2022/12/27 01:07:26;;;;;;;0.80;0.80;;;;;;;3.16;96.20;100784.72;5070865;28;20189;-76
2022/12/27 01:09:51;;;;;;;3.83;1.47;;;;;;;3.20;95.95;100792.09;5070689;28;20232;-75
2022/12/27 01:12:17;;;;;;;5.80;2.43;;;;;;;3.22;95.22;100794.53;5070840;28;20178;-75
2022/12/27 01:14:42;;;;;;;4.47;1.67;;;;;;;3.23;94.95;100801.56;5069286;28;20535;-75
2022/12/27 01:17:08;;;;;;;3.37;1.03;;;;;;;3.21;95.01;100801.81;5070694;28;20209;-75
2022/12/27 01:19:37;;;;;;;1.80;1.70;;;;;;;3.20;94.99;100813.69;5071012;28;20573;-75
2022/12/27 01:22:03;;;;;;;2.97;1.50;;;;;;;3.20;95.24;100810.19;5070830;28;20231;-75
2022/12/27 01:24:28;;;;;;;2.23;1.17;;;;;;;3.18;94.71;100810.44;5070519;28;20642;-75
2022/12/27 01:26:54;;;;;;;2.50;1.50;;;;;;;3.17;94.95;100816.88;5069317;28;20175;-75
2022/12/27 01:29:19;;;;;;;1.07;0.90;;;;;;;3.17;94.40;100813.34;5069236;28;20266;-75
2022/12/27 01:31:44;;;;;;;0.00;0.00;;;;;;;3.16;94.26;100809.03;5070476;28;20170;-76
2022/12/27 01:34:10;;;;;;;2.13;1.37;;;;;;;3.13;94.28;100806.84;5068839;28;20231;-75
2022/12/27 01:36:35;;;;;;;4.33;1.53;;;;;;;3.09;94.28;100816.53;5069976;28;20293;-74
2022/12/27 01:39:01;;;;;;;2.27;1.07;;;;;;;3.03;94.62;100802.13;5073468;28;20181;-75
2022/12/27 01:47:09;;;;;;;0.80;0.70;;;;;;;3.03;94.68;100817.50;5070478;28;20200;-75
2022/12/27 01:49:34;;;;;;;0.93;0.93;;;;;;;3.02;95.20;100808.59;5070831;28;20183;-75
2022/12/27 01:52:00;;;;;;;0.50;0.50;;;;;;;2.99;95.21;100809.13;5071089;28;20179;-75
2022/12/27 01:54:25;;;;;;;3.20;1.43;;;;;;;2.94;95.53;100800.97;5070503;28;20179;-75
2022/12/27 01:56:51;;;;;;;1.30;0.97;;;;;;;2.95;95.75;100798.00;5071600;28;20232;-75
2022/12/27 01:59:16;;;;;;;2.17;1.43;;;;;;;2.99;95.80;100804.53;5074418;28;20178;-74
2022/12/27 02:01:44;;;;;;;0.93;0.73;;;;;;;2.97;95.85;100816.66;5074684;28;20178;-75
2022/12/27 02:04:13;;;;;;;0.37;0.27;;;;;;;2.95;96.30;100810.69;5074268;28;20221;-75
2022/12/27 02:06:39;;;;;;;7.63;1.60;;;;;;;2.91;96.46;100815.78;5074198;28;20269;-75
2022/12/27 02:09:19;;;;;;;4.07;1.40;;;;;;;2.87;96.81;100825.44;5074204;28;20277;-76
2022/12/27 02:11:51;;;;;;;0.57;0.57;;;;;;;2.86;97.20;100815.69;5074102;28;20176;-75
2022/12/27 02:14:31;;;;;;;1.90;1.80;;;;;;;2.85;97.16;100815.94;5073984;28;20638;-75
2022/12/27 02:16:59;;;;;;;3.40;1.27;;;;;;;2.87;97.37;100820.03;5072745;28;20275;-75
2022/12/27 02:19:40;;;;;;;0.43;0.43;;;;;;;2.89;97.21;100823.31;5074039;28;20539;-75
2022/12/27 02:22:17;;;;;;;0.30;0.30;;;;;;;2.91;97.59;100826.56;5074191;28;20178;-75
2022/12/27 02:25:03;;;;;;;1.73;0.93;;;;;;;2.92;97.36;100822.81;5073684;28;20622;-75
2022/12/27 02:28:01;;;;;;;6.63;0.70;;;;;;;2.92;97.51;100836.31;5074167;28;20171;-75
2022/12/27 02:30:30;;;;;;;1.77;1.53;;;;;;;2.94;97.63;100831.47;5073866;28;20228;-75
2022/12/27 02:33:03;;;;;;;2.00;1.23;;;;;;;2.97;97.80;100824.75;5073505;28;20269;-75
2022/12/27 02:35:37;;;;;;;8.30;1.30;;;;;;;2.96;97.85;100828.50;5073725;28;20557;-75
2022/12/27 02:38:05;;;;;;;1.17;1.13;;;;;;;2.94;98.44;100827.94;5073714;28;20224;-75
2022/12/27 02:53:04;;;;;;;3.80;1.60;;;;;;;3.16;97.96;100828.75;5073448;28;20166;-75
2022/12/27 02:59:04;;;;;;;2.13;1.33;;;;;;;3.22;97.50;100845.84;5073262;28;20703;-75
2022/12/27 03:04:41;;;;;;;10.83;1.17;;;;;;;3.19;97.56;100830.16;5072800;28;20202;-75
2022/12/27 03:07:26;;;;;;;0.60;0.60;;;;;;;3.19;98.00;100830.16;5073283;28;20196;-75
2022/12/27 03:16:20;;;;;;;7.10;1.63;;;;;;;3.17;98.34;100835.78;5072958;28;20252;-75
2022/12/27 03:18:54;;;;;;;4.03;1.03;;;;;;;3.18;98.40;100831.19;5072893;28;20197;-75
2022/12/27 03:27:27;;;;;;;3.03;1.30;;;;;;;3.22;98.52;100824.22;5073326;28;20177;-75
2022/12/27 03:33:13;;;;;;;4.43;0.83;;;;;;;3.26;98.57;100836.97;5072778;28;20170;-75
2022/12/27 03:38:54;;;;;;;1.30;1.13;;;;;;;3.27;98.85;100835.06;5072903;28;20189;-75
2022/12/27 03:44:23;;;;;;;1.13;1.03;;;;;;;3.34;98.97;100834.91;5072178;28;20169;-75
2022/12/27 03:46:55;;;;;;;0.13;0.13;;;;;;;3.32;99.17;100832.41;5072391;28;20163;-75
2022/12/27 03:49:31;;;;;;;3.07;2.27;;;;;;;3.41;99.21;100830.91;5072250;28;20212;-75
2022/12/27 03:52:13;;;;;;;7.63;1.67;;;;;;;3.42;98.77;100827.13;5070972;28;20680;-75
2022/12/27 03:54:41;;;;;;;3.30;1.70;;;;;;;3.38;99.04;100826.03;5071977;28;20170;-74
2022/12/27 03:57:11;;;;;;;0.47;0.47;;;;;;;3.39;99.22;100830.34;5071924;28;20213;-75
2022/12/27 03:59:37;;;;;;;7.83;3.00;;;;;;;3.40;99.41;100840.09;5072164;28;20179;-75
2022/12/27 04:02:03;;;;;;;1.93;1.50;;;;;;;3.38;99.34;100838.72;5071987;28;20174;-75
2022/12/27 04:04:29;;;;;;;2.17;1.67;;;;;;;3.37;100.00;100839.78;5071673;28;20291;-75
2022/12/27 04:06:54;;;;;;;2.60;1.77;;;;;;;3.34;100.00;100843.81;5071880;28;20210;-75
2022/12/27 04:36:41;;;;;;;10.17;3.13;;;;;;;3.80;99.48;100853.19;5071297;28;20205;-75
2022/12/27 04:39:06;;;;;;;1.80;1.47;;;;;;;3.89;98.82;100851.63;5071397;28;20170;-75
2022/12/27 04:55:23;;;;;;;6.20;2.23;;;;;;;3.78;99.22;100849.94;5071409;28;20224;-75
2022/12/27 04:57:49;;;;;;;1.43;1.33;;;;;;;3.80;99.26;100846.97;5070895;28;20711;-75
2022/12/27 05:03:02;;;;;;;3.20;2.90;;;;;;;3.91;98.43;100850.59;5071062;28;20189;-74
2022/12/27 05:05:28;;;;;;;3.22;2.55;;;;;;;3.98;98.70;100857.41;5070749;28;20414;-74
2022/12/27 05:16:08;;;;;;;4.97;3.63;;;;;;;4.16;97.85;100873.22;5075618;28;20243;-74
2022/12/27 05:18:34;;;;;;;4.27;3.13;;;;;;;4.21;97.75;100861.66;5072021;28;20174;-75
2022/12/27 05:21:04;;;;;;;4.23;2.93;;;;;;;4.21;97.30;100866.25;5072149;28;20640;-75
2022/12/27 05:26:25;;;;;;;6.43;3.67;;;;;;;4.20;97.38;100861.91;5070875;28;20189;-75
2022/12/27 05:28:52;;;;;;;4.97;4.30;;;;;;;4.24;97.11;100865.72;5069753;28;20573;-75
2022/12/27 05:31:18;;;;;;;8.03;4.13;;;;;;;4.23;96.90;100874.91;5070096;28;20229;-75
2022/12/27 05:33:44;;;;;;;4.03;3.73;;;;;;;4.24;96.77;100857.59;5069263;28;20498;-75
2022/12/27 05:36:09;;;;;;;5.90;3.20;;;;;;;4.26;96.57;100877.09;5070819;28;20289;-75
2022/12/27 05:38:35;;;;;;;3.57;3.27;;;;;;;4.24;97.14;100884.66;5070612;28;20578;-75
2022/12/27 05:41:01;;;;;;;7.20;3.60;;;;;;;4.25;97.17;100884.38;5070739;28;20175;-74
2022/12/27 05:43:27;;;;;;;5.20;4.70;;;;;;;4.22;97.39;100884.09;5070297;28;20261;-75
2022/12/27 05:45:54;;;;;;;11.27;3.93;;;;;;;4.22;97.22;100886.81;5070527;28;20635;-75
2022/12/27 05:48:20;;;;;;;3.93;3.37;;;;;;;4.24;97.25;100893.56;5070431;28;20231;-74
2022/12/27 05:50:46;;;;;;;10.20;3.67;;;;;;;4.23;97.76;100896.53;5070399;28;20186;-75
2022/12/27 05:53:12;;;;;;;2.00;1.90;;;;;;;4.19;98.03;100896.22;5070148;28;20167;-75
2022/12/27 05:55:37;;;;;;;4.70;4.23;;;;;;;4.21;98.29;100890.56;5070281;28;20472;-74
2022/12/27 05:58:02;;;;;;;6.97;4.50;;;;;;;4.22;98.67;100900.31;5070338;28;20198;-75
2022/12/27 06:00:28;;;;;;;10.00;3.50;;;;;;;4.22;98.20;100909.25;5070365;28;20624;-75
2022/12/27 06:02:53;;;;;;;8.50;4.67;;;;;;;4.21;98.40;100906.81;5070153;28;20284;-75
2022/12/27 06:05:18;;;;;;;6.60;5.83;;;;;;;4.18;98.20;100910.81;5068807;28;20174;-74
2022/12/27 06:07:44;;;;;;;9.53;4.40;;;;;;;4.16;98.29;100912.97;5070138;28;20641;-75
2022/12/27 06:10:09;;;;;;;4.17;3.77;;;;;;;4.20;98.49;100921.41;5070494;28;20175;-75
2022/12/27 06:12:36;;;;;;;6.57;5.17;;;;;;;4.18;98.78;100922.44;5070557;28;20234;-74
2022/12/27 06:15:01;;;;;;;4.03;3.73;;;;;;;4.18;98.45;100925.16;5070195;28;20267;-75
2022/12/27 06:17:27;;;;;;;5.33;4.93;;;;;;;4.17;98.63;100928.13;5070036;28;20252;-75
2022/12/27 06:19:52;;;;;;;8.10;5.63;;;;;;;4.13;98.74;100932.41;5070098;28;20178;-76
2022/12/27 06:22:17;;;;;;;5.33;3.70;;;;;;;4.16;99.07;100927.28;5070388;28;20307;-75
2022/12/27 06:24:43;;;;;;;8.93;5.73;;;;;;;4.16;98.71;100934.59;5069714;28;20178;-74
2022/12/27 06:27:08;;;;;;;11.83;4.97;;;;;;;4.18;98.42;100924.34;5069998;28;20262;-74
2022/12/27 06:29:33;;;;;;;4.67;4.37;;;;;;;4.18;98.05;100932.44;5070059;28;20253;-75
2022/12/27 06:31:59;;;;;;;7.60;6.23;;;;;;;4.15;98.31;100930.25;5070069;28;20263;-76
2022/12/27 06:34:24;;;;;;;4.77;4.10;;;;;;;4.13;98.24;100930.53;5069745;28;20171;-75
2022/12/27 06:36:50;;;;;;;6.53;4.77;;;;;;;4.13;98.59;100924.28;5069882;28;20202;-75
2022/12/27 06:39:19;;;;;;;9.80;6.30;;;;;;;4.13;98.75;100938.63;5069955;28;20175;-75
2022/12/27 06:41:44;;;;;;;5.93;5.43;;;;;;;4.13;98.86;100933.22;5068686;28;20170;-75
2022/12/27 06:44:10;;;;;;;15.50;3.17;;;;;;;4.09;99.86;100931.31;5071320;28;20186;-74
2022/12/27 06:46:35;;;;;;;5.87;4.97;;;;;;;4.09;99.71;100921.31;5073418;28;20323;-77
2022/12/27 06:49:01;;;;;;;10.17;5.03;;;;;;;4.09;100.00;100921.31;5073505;28;20646;-75
2022/12/27 06:51:26;;;;;;;5.77;3.30;;;;;;;4.10;99.45;100928.34;5071995;28;20517;-75
2022/12/27 06:53:51;;;;;;;4.63;4.30;;;;;;;4.08;99.18;100913.44;5073085;28;20167;-75
2022/12/27 06:56:19;;;;;;;4.07;3.70;;;;;;;4.06;99.26;100938.03;5073013;28;20243;-74
2022/12/27 06:58:49;;;;;;;8.37;5.17;;;;;;;4.08;99.53;100944.00;5073138;28;20171;-75
2022/12/27 07:01:25;;;;;;;14.27;5.63;;;;;;;4.11;99.28;100951.59;5072732;28;20159;-74
2022/12/27 07:03:53;;;;;;;10.90;5.63;;;;;;;4.08;98.92;100952.13;5072734;28;20182;-75
2022/12/27 07:06:20;;;;;;;6.53;4.80;;;;;;;4.06;99.44;100953.44;5072942;28;20250;-75
2022/12/27 07:08:47;;;;;;;11.70;6.00;;;;;;;4.03;100.00;100962.03;5072846;28;20189;-74
2022/12/27 07:11:13;;;;;;;4.37;4.03;;;;;;;4.04;100.00;100950.16;5072965;28;20560;-75
2022/12/27 07:13:41;;;;;;;7.17;6.43;;;;;;;4.07;100.00;100968.59;5072828;28;20175;-75
2022/12/27 07:16:08;;;;;;;7.13;6.43;;;;;;;4.06;99.86;100962.38;5072667;28;20658;-75
2022/12/27 07:18:34;;;;;;;7.57;3.90;;;;;;;4.05;100.00;100960.75;5072817;28;20175;-74
2022/12/27 07:21:05;;;;;;;5.80;5.30;;;;;;;4.03;100.00;100967.44;5072690;28;20174;-74
2022/12/27 07:23:30;;;;;;;6.53;5.50;;;;;;;4.03;100.00;100979.06;5072302;28;20179;-74
2022/12/27 07:26:02;;;;;;;6.13;5.73;;;;;;;4.05;100.00;100976.97;5072518;28;20174;-75
2022/12/27 07:28:27;;;;;;;21.23;6.40;;;;;;;4.06;100.00;100980.47;5072675;28;20228;-74
2022/12/27 07:30:52;;;;;;;5.70;5.20;;;;;;;4.05;100.00;100976.97;5070945;28;20574;-74
2022/12/27 07:33:18;;;;;;;6.60;6.00;;;;;;;4.07;100.00;100990.22;5072233;28;20179;-77
2022/12/27 07:35:44;;;;;;;5.20;4.90;;;;;;;4.09;100.00;100996.19;5071094;28;20194;-75
2022/12/27 07:38:10;;;;;;;6.57;5.67;;;;;;;4.07;100.00;100985.63;5071049;28;20661;-75
2022/12/27 07:40:35;;;;;;;11.77;6.00;;;;;;;4.05;100.00;100987.78;5072399;28;20185;-75
2022/12/27 07:43:01;;;;;;;9.07;5.63;;;;;;;4.08;100.00;100994.56;5072282;28;20174;-75
2022/12/27 07:45:26;;;;;;;5.83;5.37;;;;;;;4.10;100.00;100992.41;5072367;28;20258;-75
2022/12/27 07:47:52;;;;;;;16.60;5.67;;;;;;;4.10;100.00;101000.53;5072164;28;20590;-75
2022/12/27 07:50:17;;;;;;;15.07;5.93;;;;;;;4.15;100.00;101004.09;5072165;28;20593;-75
2022/12/27 07:52:42;;;;;;;7.57;5.10;;;;;;;4.15;100.00;101012.19;5071711;28;20175;-75
2022/12/27 07:55:08;;;;;;;4.07;3.77;;;;;;;4.17;99.76;101023.56;5071562;28;20171;-75
2022/12/27 07:57:33;;;;;;;5.10;4.60;;;;;;;4.17;100.00;101020.06;5072130;28;20205;-75
2022/12/27 07:59:58;;;;;;;15.77;2.67;;;;;;;4.21;99.76;101023.09;5071880;28;20518;-75
2022/12/27 08:02:23;;;;;;;13.73;6.00;;;;;;;4.19;99.52;101034.13;5070469;28;20261;-76
2022/12/27 08:04:49;;;;;;;3.80;3.60;;;;;;;4.18;99.70;101030.59;5071545;28;20179;-75
2022/12/27 08:07:17;;;;;;;9.10;4.30;;;;;;;4.22;99.65;101040.94;5071672;28;20258;-75
2022/12/27 08:09:44;;;;;;;4.43;3.83;;;;;;;4.21;99.34;101042.84;5071670;28;20650;-75
2022/12/27 08:12:12;;;;;;;4.40;4.00;;;;;;;4.22;98.79;101035.53;5071615;28;20177;-74
2022/12/27 08:14:37;;;;;;;5.17;4.77;;;;;;;4.23;98.82;101051.50;5071306;28;20179;-75
2022/12/27 08:17:07;;;;;;;3.90;3.07;;;;;;;4.23;98.90;101067.72;5071578;28;20252;-75
2022/12/27 08:19:32;;;;;;;3.93;3.63;;;;;;;4.24;98.91;101049.63;5071445;28;20205;-75
2022/12/27 08:21:58;;;;;;;8.97;5.40;;;;;;;4.22;98.89;101054.47;5071573;28;20202;-74
2022/12/27 08:24:23;;;;;;;8.93;3.73;;;;;;;4.23;98.61;101050.69;5071270;28;20269;-74
2022/12/27 08:26:49;;;;;;;5.67;4.80;;;;;;;4.23;98.70;101075.84;5071149;28;20186;-74
2022/12/27 08:29:14;;;;;;;6.17;4.37;;;;;;;4.23;98.55;101075.84;5071478;28;20175;-74
2022/12/27 08:31:39;;;;;;;7.13;3.90;;;;;;;4.23;98.36;101080.44;5071275;28;20170;-76
2022/12/27 08:34:05;;;;;;;4.30;3.90;;;;;;;4.28;98.16;101084.00;5070848;28;20170;-75
2022/12/27 08:36:30;;;;;;;4.73;4.40;;;;;;;4.31;97.15;101078.09;5071086;28;20212;-76
2022/12/27 08:38:56;;;;;;;11.20;5.43;;;;;;;4.32;97.10;101097.81;5071193;28;20186;-75
2022/12/27 08:41:22;;;;;;;4.87;3.20;;;;;;;4.33;96.82;101105.69;5069795;28;20185;-77
2022/12/27 08:43:47;;;;;;;5.93;4.43;;;;;;;4.33;97.02;101102.16;5070928;28;20178;-76
2022/12/27 08:46:13;;;;;;;3.17;2.20;;;;;;;4.33;97.13;101094.06;5070983;28;20174;-76
2022/12/27 08:48:38;;;;;;;9.53;3.70;;;;;;;4.33;96.87;101102.97;5071063;28;20174;-76
2022/12/27 08:51:05;;;;;;;3.17;2.97;;;;;;;4.37;96.34;101092.50;5071005;28;20209;-76
2022/12/27 08:53:30;;;;;;;9.30;3.93;;;;;;;4.39;96.10;101104.69;5070730;28;20167;-76
2022/12/27 08:55:56;;;;;;;5.37;4.57;;;;;;;4.38;96.53;101094.13;5069477;28;20166;-77
2022/12/27 08:58:22;;;;;;;6.00;3.83;;;;;;;4.41;96.72;101112.56;5071077;28;20178;-77
2022/12/27 09:00:47;;;;;;;7.63;4.07;;;;;;;4.38;96.56;101110.34;5070963;28;20174;-76
2022/12/27 09:03:18;;;;;;;10.00;4.80;;;;;;;4.39;96.98;101112.81;5069037;28;20182;-77
2022/12/27 09:05:44;;;;;;;5.03;4.10;;;;;;;4.38;96.27;101104.94;5070445;28;20619;-77
2022/12/27 09:08:10;;;;;;;7.40;4.53;;;;;;;4.37;96.28;101109.53;5069059;28;20266;-76
2022/12/27 09:10:35;;;;;;;10.43;3.10;;;;;;;4.36;96.33;101117.91;5070918;28;20622;-77
2022/12/27 09:13:00;;;;;;;3.23;2.93;;;;;;;4.34;96.54;101111.91;5070528;28;20261;-76
2022/12/27 09:15:26;;;;;;;6.87;3.27;;;;;;;4.35;96.47;101121.69;5069428;28;20271;-77
2022/12/27 09:17:51;;;;;;;9.20;2.77;;;;;;;4.36;95.57;101105.19;5070514;28;20198;-76
2022/12/27 09:20:16;;;;;;;3.27;2.43;;;;;;;4.38;95.11;101127.41;5070627;28;20179;-77
2022/12/27 09:22:42;;;;;;;5.20;2.67;;;;;;;4.38;95.13;101126.59;5070375;28;20171;-76
2022/12/27 09:25:08;;;;;;;3.13;2.73;;;;;;;4.35;95.52;101127.91;5070631;28;20175;-76
2022/12/27 09:27:35;;;;;;;6.87;2.60;;;;;;;4.35;95.96;101122.50;5070578;28;20163;-78
2022/12/27 09:30:00;;;;;;;6.07;3.67;;;;;;;4.38;95.87;101137.41;5071820;28;20179;-79
2022/12/27 09:32:26;;;;;;;4.53;2.87;;;;;;;4.39;96.47;101134.44;5079673;28;20175;-77
2022/12/27 09:34:52;;;;;;;5.23;3.33;;;;;;;4.45;96.20;101132.59;5072598;28;20209;-76
2022/12/27 09:37:18;;;;;;;18.20;3.83;;;;;;;4.51;95.75;101123.50;5070889;28;20237;-78
2022/12/27 09:39:43;;;;;;;2.93;2.53;;;;;;;4.58;96.06;101148.44;5070553;28;20206;-77
2022/12/27 09:42:38;;;;;;;17.53;3.13;;;;;;;4.64;95.15;101149.34;5071511;28;20589;-76
2022/12/27 09:45:24;;;;;;;4.73;3.37;;;;;;;4.68;95.17;101147.75;5070824;28;20200;-78
2022/12/27 09:48:08;;;;;;;3.10;2.80;;;;;;;4.68;95.19;101151.28;5071242;28;20235;-78
2022/12/27 09:50:47;;;;;;;6.50;2.70;;;;;;;4.69;95.13;101149.38;5071027;28;20258;-76
2022/12/27 09:53:19;;;;;;;7.80;3.00;;;;;;;4.71;94.82;101153.47;5070153;28;20224;-77
2022/12/27 09:55:56;;;;;;;3.87;3.53;;;;;;;4.73;94.79;101156.72;5070489;28;20190;-76
2022/12/27 09:58:40;;;;;;;2.87;2.20;;;;;;;4.73;94.42;101159.44;5070335;28;20185;-76
2022/12/27 10:01:18;;;;;;;11.27;2.57;;;;;;;4.76;93.59;101156.22;5070384;28;20232;-79
2022/12/27 10:03:43;;;;;;;4.03;3.27;;;;;;;4.84;92.46;101152.25;5070011;28;20184;-78
2022/12/27 10:06:17;;;;;;;3.67;3.33;;;;;;;4.88;92.79;101161.47;5070115;28;20171;-78
2022/12/27 10:08:59;;;;;;;6.50;3.57;;;;;;;4.82;92.94;101159.00;5068728;28;20187;-78
2022/12/27 10:11:46;;;;;;;5.90;2.83;;;;;;;4.73;93.75;101166.75;5068816;28;20264;-77
2022/12/27 10:14:20;;;;;;;2.67;2.47;;;;;;;4.68;93.76;101162.09;5072059;28;20171;-79
2022/12/27 10:17:33;;;;;;;3.57;2.83;;;;;;;4.71;93.27;101164.28;5070256;28;20570;-79
2022/12/27 10:20:43;;;;;;;5.93;2.53;;;;;;;4.74;93.24;101166.47;5011876;28;20641;-78
2022/12/27 10:23:13;;;;;;;2.90;2.30;;;;;;;4.74;93.46;101165.66;5073691;28;20649;-78
2022/12/27 10:25:40;;;;;;;10.23;3.30;;;;;;;4.75;93.96;101172.72;5073757;28;20553;-76
2022/12/27 10:28:14;;;;;;;2.90;2.57;;;;;;;4.78;94.81;101180.34;5073470;28;20171;-77
2022/12/27 10:30:41;;;;;;;3.50;2.97;;;;;;;4.80;94.46;101159.25;5073606;28;20162;-77
2022/12/27 10:33:39;;;;;;;3.90;3.17;;;;;;;4.85;94.02;101161.19;5072835;28;20179;-78
2022/12/27 10:36:18;;;;;;;9.30;4.37;;;;;;;4.87;94.51;101169.84;5069019;28;20186;-76
2022/12/27 10:38:43;;;;;;;5.37;3.47;;;;;;;4.91;94.04;101154.72;5073348;28;20174;-78
2022/12/27 10:41:33;;;;;;;9.60;3.13;;;;;;;4.95;94.13;101155.88;5073591;28;20622;-77
2022/12/27 10:43:59;;;;;;;9.47;2.37;;;;;;;4.93;94.23;101166.97;5072880;28;20175;-77
2022/12/27 10:46:27;;;;;;;3.93;2.23;;;;;;;4.94;94.39;101167.78;5073138;28;20166;-77
2022/12/27 10:49:18;;;;;;;2.93;2.07;;;;;;;5.02;94.34;101164.59;5073040;28;20175;-76
2022/12/27 10:51:44;;;;;;;1.60;1.50;;;;;;;5.10;93.40;101158.72;5073093;28;20180;-76
2022/12/27 10:54:12;;;;;;;10.87;3.63;;;;;;;5.14;92.79;101154.41;5072571;28;20170;-77
2022/12/27 10:56:40;;;;;;;7.00;2.23;;;;;;;5.19;92.50;101159.06;5072942;28;20392;-77
2022/12/27 10:59:16;;;;;;;7.20;2.47;;;;;;;5.22;91.52;101155.84;5072877;28;20177;-78
2022/12/27 11:01:44;;;;;;;3.67;2.40;;;;;;;5.21;91.52;101171.28;5072929;28;20170;-77
2022/12/27 11:04:21;;;;;;;5.10;3.43;;;;;;;5.32;91.57;101159.44;5072392;28;20178;-77
2022/12/27 11:06:58;;;;;;;2.57;2.47;;;;;;;5.44;91.39;101177.41;5072530;28;20261;-77
2022/12/27 11:09:33;;;;;;;3.20;2.97;;;;;;;5.53;90.54;101165.84;5072970;28;20177;-77
2022/12/27 11:12:13;;;;;;;5.53;1.60;;;;;;;5.64;90.62;101182.97;5072696;28;20207;-84
2022/12/27 11:14:39;;;;;;;3.80;2.67;;;;;;;5.70;90.17;101176.53;5072539;28;20649;-78
2022/12/27 11:17:09;;;;;;;3.93;3.60;;;;;;;5.61;89.44;101178.09;5072193;28;20406;-77
2022/12/27 11:19:38;;;;;;;4.40;4.00;;;;;;;5.52;89.65;101157.97;5072690;28;20628;-80
2022/12/27 11:22:06;;;;;;;5.17;2.23;;;;;;;5.47;89.25;101175.00;5072487;28;20171;-78
2022/12/27 11:24:32;;;;;;;5.63;2.77;;;;;;;5.44;89.72;101172.81;5072325;28;20538;-79
2022/12/27 11:26:58;;;;;;;4.50;4.07;;;;;;;5.30;90.13;101177.03;5072356;28;20189;-80
2022/12/27 11:29:29;;;;;;;15.93;3.80;;;;;;;5.17;91.35;101170.16;5071658;28;20175;-77
2022/12/27 11:31:55;;;;;;;4.30;3.07;;;;;;;5.18;92.30;101177.19;5072304;28;20533;-76
2022/12/27 11:34:31;;;;;;;4.97;3.73;;;;;;;5.17;92.85;101180.16;5072129;28;20167;-77
2022/12/27 11:37:13;;;;;;;3.07;2.83;;;;;;;5.12;92.95;101177.41;5072017;28;20197;-76
2022/12/27 11:39:46;;;;;;;18.43;4.30;;;;;;;5.12;93.21;101178.22;5072224;28;20179;-76
2022/12/27 11:42:38;;;;;;;8.80;3.57;;;;;;;5.04;93.33;101176.78;5071920;28;20159;-76
2022/12/27 11:45:27;;;;;;;4.20;3.80;;;;;;;5.01;93.62;101182.72;5072152;28;20228;-76
2022/12/27 11:48:10;;;;;;;2.10;2.00;;;;;;;5.00;93.75;101183.81;5072028;28;20201;-76
2022/12/27 11:50:52;;;;;;;3.40;3.07;;;;;;;5.01;93.47;101171.91;5072025;28;20159;-75
2022/12/27 11:53:20;;;;;;;5.87;2.70;;;;;;;5.00;93.49;101178.38;5071204;28;20270;-76
2022/12/27 11:56:18;;;;;;;6.00;3.13;;;;;;;5.00;92.15;101183.00;5071836;28;20175;-76
2022/12/27 11:58:55;;;;;;;2.87;2.60;;;;;;;4.98;92.12;101174.31;5071624;28;20175;-78
2022/12/27 12:01:39;;;;;;;2.07;1.97;;;;;;;4.99;91.66;101186.78;5071817;28;20207;-76
2022/12/27 12:04:41;;;;;;;4.90;3.07;;;;;;;4.99;92.08;101201.13;5071356;28;20204;-76
2022/12/27 12:07:17;;;;;;;3.33;3.03;;;;;;;4.96;92.30;101198.94;5071159;28;20166;-76
2022/12/27 12:09:45;;;;;;;2.27;2.17;;;;;;;4.97;92.04;101197.84;5071701;28;20174;-77
2022/12/27 12:12:34;;;;;;;2.00;1.90;;;;;;;4.93;92.39;101194.03;5071330;28;20591;-77
2022/12/27 12:15:29;;;;;;;2.63;2.50;;;;;;;4.90;93.32;101199.13;5071518;28;20171;-77
2022/12/27 12:18:07;;;;;;;4.97;2.67;;;;;;;4.91;92.95;101195.34;5069979;28;20213;-76
2022/12/27 12:20:42;;;;;;;1.13;1.13;;;;;;;4.93;93.57;101195.94;5051529;28;20555;-77
2022/12/27 12:23:36;;;;;;;3.00;2.53;;;;;;;4.95;93.29;101207.31;5066400;28;20641;-77
2022/12/27 12:26:19;;;;;;;12.70;4.63;;;;;;;5.00;93.26;101199.22;5040405;28;20287;-77
2022/12/27 12:29:03;;;;;;;3.50;3.30;;;;;;;5.10;93.27;101199.34;5071371;28;20554;-77
2022/12/27 12:31:52;;;;;;;6.50;4.17;;;;;;;5.10;92.77;101191.22;5071491;28;20170;-77
2022/12/27 12:34:52;;;;;;;4.30;3.90;;;;;;;5.17;92.32;101189.09;5071189;28;20673;-77
2022/12/27 12:37:46;;;;;;;6.03;3.17;;;;;;;5.25;91.63;101204.09;5071201;28;20281;-77
2022/12/27 12:41:05;;;;;;;4.53;1.73;;;;;;;5.28;92.27;101209.81;5071006;28;20177;-77
2022/12/27 12:44:05;;;;;;;4.00;3.60;;;;;;;5.28;91.86;101214.41;4988935;28;20181;-77
2022/12/27 12:46:51;;;;;;;6.87;3.10;;;;;;;5.28;90.96;101211.69;5060085;28;20273;-77
2022/12/27 12:49:44;;;;;;;3.37;2.87;;;;;;;5.28;91.48;101211.69;5070963;28;20181;-77
2022/12/27 12:52:29;;;;;;;7.50;3.90;;;;;;;5.29;90.66;101216.03;5070889;28;20182;-77
2022/12/27 12:55:16;;;;;;;4.37;3.50;;;;;;;5.28;89.40;101200.84;5070743;28;20166;-77
2022/12/27 12:57:56;;;;;;;12.03;4.13;;;;;;;5.30;88.29;101194.09;5069459;28;20207;-77
2022/12/27 13:00:54;;;;;;;6.17;4.43;;;;;;;5.31;88.17;101195.72;5070795;28;20205;-76
2022/12/27 13:04:01;;;;;;;13.23;3.93;;;;;;;5.32;88.14;101185.72;5070266;28;20554;-76
2022/12/27 13:06:51;;;;;;;4.37;3.97;;;;;;;5.31;88.59;101195.72;5070018;28;20479;-77
2022/12/27 13:09:41;;;;;;;4.13;3.27;;;;;;;5.34;88.16;101187.09;5070673;28;20171;-75
2022/12/27 13:12:34;;;;;;;2.00;1.90;;;;;;;5.38;88.43;101182.00;5070430;28;20171;-76
2022/12/27 13:15:15;;;;;;;4.27;3.87;;;;;;;5.35;87.67;101190.59;5069407;28;20347;-77
2022/12/27 13:18:01;;;;;;;7.77;2.90;;;;;;;5.39;88.42;101175.50;5069342;28;20242;-77
2022/12/27 13:21:04;;;;;;;4.57;3.17;;;;;;;5.40;88.11;101169.00;5071081;28;20261;-76
2022/12/27 13:23:54;;;;;;;2.00;1.60;;;;;;;5.37;87.62;101175.75;5070575;28;20257;-77
2022/12/27 13:26:24;;;;;;;6.40;4.07;;;;;;;5.28;86.81;101166.47;5070753;28;20569;-77
2022/12/27 13:29:11;;;;;;;5.23;3.00;;;;;;;5.26;86.69;101171.31;5070732;28;20175;-76
2022/12/27 13:31:52;;;;;;;4.20;3.03;;;;;;;5.22;86.81;101175.63;5069403;28;20267;-76
2022/12/27 13:34:40;;;;;;;14.40;4.53;;;;;;;5.18;86.97;101181.78;5070590;28;20622;-77